Clarksburg, WV

6:12 AM EST on February 09, 2016 (GMT -0500)
North View | | Change Station
CLOSE
Current Station
Personal Weather Station
Location: Clarksburg, WV
Elevation: 1045 ft
Nearby Weather Stations
Active Advisory: Winter Weather Advisory

Elev 1045 ft 39.30 °N, 80.35 °W | Updated 10 seconds ago

Snow
Snow
30.2 °F
Feels Like 21 °F
N
11.5
Wind Variable Wind from WNW
Gusts 11.5 mph

Today
High -- | Low -- °F
--% Chance of Precip.
Yesterday
High -- | Low -- °F
Precip. -- in
Pressure 29.57 in
Visibility 2.0 miles
Clouds Scattered Clouds 700 ft
Scattered Clouds 1200 ft
Overcast 1700 ft
Windchill 21 °F
Dew Point 29 °F
Humidity 95%
Rainfall 0.00 in
Snow Depth Not available.
7:20 AM 5:51 PM
New Moon, 1% visible
METAR KCKB 091053Z AUTO 26009KT 2SM -SN BR SCT007 SCT012 OVC017 M01/M02 A2955 RMK AO2 SLP011 P0002 T10111022 TSNO
Pressure 29.57 in
Visibility 2.0 miles
Clouds Scattered Clouds 700 ft
Scattered Clouds 1200 ft
Overcast 1700 ft
Windchill 21 °F
Dew Point 29 °F
Humidity 95%
Rainfall 0.00 in
Snow Depth Not available.
7:20 AM 5:51 PM
New Moon, 1% visible
METAR KCKB 091053Z AUTO 26009KT 2SM -SN BR SCT007 SCT012 OVC017 M01/M02 A2955 RMK AO2 SLP011 P0002 T10111022 TSNO

10-Day Weather Forecast

Almanac

Astronomy

Feb. 09, 2016 Rise Set
Actual Time
Civil Twilight
Nautical Twilight
Astronomical Twilight
Moon
Length of Visible Light
Length of Day
Tomorrow will be .
, % of the Moon is Illuminated

Today's Extremes

State Highs State Lows

Community

WunderPhotos

Upload Photos

1,891,565 photos uploaded!

WunderBlog® & News

Nearby

Air Quality

  Air Quality AQ Index Pollutant
Not available.

Snow Depth

Station Depth Elevation

Earthquake Activity

City Distance Mag. Time & Date
Minimum magnitude displayed is 2.5.

Coastal Water Temperatures

Place Temperature

Stations

Nearby Weather Stations

Station Location Temp. Windchill Dew Point Humidity Wind Precip. Elev Updated Type
                   

Watches & Warnings

Winter Weather Advisory
Issued: 4:54 AM EST Feb. 9, 2016 – National Weather Service

... Winter Weather Advisory remains in effect until 7 am EST
Wednesday...

* hazard types... snow.

* Snow accumulations... 3 to 6 inches.

* Timing... snow showers will be frequent today through tonight but
may even linger into Wednesday.

* Impacts... travel may be difficult at times.Wet snow last night
may make for ice beneath the snow... making the roads that much
more treacherous. Visibilities will be limited at times.

Precautionary/preparedness actions...

A Winter Weather Advisory for snow means that periods of snow
will cause primarily travel difficulties. Be prepared for snow
covered roads and limited visibilities... and use caution while
driving.



Trm